ITY620 LIRF-KLAX
Flight info
| Callsign | ITY620 |
|---|---|
| Flight time | N/A |
| Altitude | 36000 |
| Route | NEMBO DCT ELB DCT GOVGO DCT DEVOX DCT PIMOT DCT AOSTA DCT ORSUD DCT MOLUS DCT IBODI DCT GOTED DCT TRO DCT CLM DCT KOPOR DCT VESAN DCT RATUK DCT SOVAT L613 SANDY DCT OKSAW DCT TEWXI DCT LIPGO DCT CON DCT SUNOT/M084F360 NATB NIFTY DCT MIBNO/N0493F360 DCT TUNNI DCT 58N080W 54N090W DCT HML DCT KP09A DCT DPR DCT KD75U DCT MLF DCT WINEN Q73 HAKMN ANJLL4 |
| Aircraft | A359/H-SDE2E3GHIJ3J4J5LM1ORWXY/LB1D1 |
Departure
| Time | 2026-05-07 10:25 |
|---|---|
| Airport | Rome–Fiumicino Leonardo da Vinci International Airport (LIRF) |
Arrival
| Time | N/A |
|---|---|
| Airport | Los Angeles International Airport (KLAX) |
| Time | Latitude | Longitude | Altitude | Speed | Heading |
|---|---|---|---|---|---|
| 2026-05-07 09:48 | 41.79864 | 12.24744 | 23 ft | 0 kts | 205° |
| 2026-05-07 10:05 | 41.79881 | 12.24755 | 21 ft | 4 kts | 205° |
| 2026-05-07 10:05 | 41.79905 | 12.24770 | 22 ft | 4 kts | 204° |
| 2026-05-07 10:05 | 41.79924 | 12.24782 | 25 ft | 4 kts | 204° |
| 2026-05-07 10:05 | 41.79949 | 12.24797 | 24 ft | 4 kts | 191° |
| 2026-05-07 10:06 | 41.79972 | 12.24792 | 22 ft | 4 kts | 149° |
| 2026-05-07 10:06 | 41.79988 | 12.24770 | 24 ft | 4 kts | 96° |
| 2026-05-07 10:06 | 41.79984 | 12.24736 | 23 ft | 4 kts | 68° |
| 2026-05-07 10:06 | 41.79975 | 12.24705 | 23 ft | 2 kts | 70° |
| 2026-05-07 10:07 | 41.79974 | 12.24704 | 20 ft | 5 kts | 70° |
| 2026-05-07 10:16 | 41.79975 | 12.24705 | 20 ft | 1 kts | 70° |
| 2026-05-07 10:16 | 41.79987 | 12.24749 | 24 ft | 9 kts | 68° |
| 2026-05-07 10:16 | 41.79989 | 12.24755 | 23 ft | 0 kts | 67° |
| 2026-05-07 10:17 | 41.79990 | 12.24757 | 23 ft | 1 kts | 56° |
| 2026-05-07 10:17 | 41.80019 | 12.24775 | 23 ft | 9 kts | 12° |
| 2026-05-07 10:18 | 41.80059 | 12.24705 | 20 ft | 14 kts | 266° |
| 2026-05-07 10:18 | 41.80016 | 12.24539 | 22 ft | 23 kts | 249° |
| 2026-05-07 10:18 | 41.79953 | 12.24310 | 23 ft | 30 kts | 250° |
| 2026-05-07 10:18 | 41.79909 | 12.24022 | 23 ft | 32 kts | 255° |
| 2026-05-07 10:19 | 41.79842 | 12.23765 | 23 ft | 18 kts | 251° |
| 2026-05-07 10:19 | 41.79900 | 12.23662 | 25 ft | 15 kts | 337° |
| 2026-05-07 10:19 | 41.79998 | 12.23616 | 26 ft | 15 kts | 341° |
| 2026-05-07 10:19 | 41.80094 | 12.23574 | 25 ft | 16 kts | 342° |
| 2026-05-07 10:20 | 41.80206 | 12.23527 | 24 ft | 17 kts | 343° |
| 2026-05-07 10:20 | 41.80323 | 12.23480 | 24 ft | 18 kts | 342° |
| 2026-05-07 10:20 | 41.80445 | 12.23429 | 24 ft | 19 kts | 342° |
| 2026-05-07 10:20 | 41.80585 | 12.23371 | 24 ft | 23 kts | 342° |
| 2026-05-07 10:21 | 41.80744 | 12.23304 | 23 ft | 25 kts | 342° |
| 2026-05-07 10:21 | 41.80918 | 12.23231 | 25 ft | 28 kts | 342° |
| 2026-05-07 10:21 | 41.81110 | 12.23150 | 25 ft | 30 kts | 342° |
| 2026-05-07 10:21 | 41.81306 | 12.23068 | 24 ft | 24 kts | 342° |
| 2026-05-07 10:22 | 41.81431 | 12.23015 | 25 ft | 17 kts | 342° |
| 2026-05-07 10:22 | 41.81521 | 12.22918 | 24 ft | 17 kts | 301° |
| 2026-05-07 10:22 | 41.81539 | 12.22875 | 24 ft | 0 kts | 300° |
| 2026-05-07 10:23 | 41.81544 | 12.22863 | 24 ft | 5 kts | 300° |
| 2026-05-07 10:23 | 41.81560 | 12.22775 | 23 ft | 15 kts | 265° |
| 2026-05-07 10:23 | 41.81504 | 12.22670 | 22 ft | 14 kts | 184° |
| 2026-05-07 10:23 | 41.81422 | 12.22694 | 22 ft | 0 kts | 163° |
| 2026-05-07 10:24 | 41.81419 | 12.22695 | 22 ft | 5 kts | 163° |
| 2026-05-07 10:24 | 41.81197 | 12.22788 | 22 ft | 63 kts | 162° |
| 2026-05-07 10:24 | 41.80594 | 12.23042 | 25 ft | 116 kts | 163° |
| 2026-05-07 10:24 | 41.79670 | 12.23427 | 22 ft | 161 kts | 162° |
| 2026-05-07 10:25 | 41.78529 | 12.23893 | 355 ft | 170 kts | 165° |
| 2026-05-07 10:25 | 41.77426 | 12.24326 | 993 ft | 162 kts | 163° |
| 2026-05-07 10:25 | 41.76279 | 12.24461 | 1289 ft | 175 kts | 192° |
| 2026-05-07 10:25 | 41.75282 | 12.23462 | 1397 ft | 192 kts | 240° |
| 2026-05-07 10:26 | 41.75124 | 12.21650 | 1501 ft | 210 kts | 285° |
| 2026-05-07 10:26 | 41.75898 | 12.19939 | 1726 ft | 222 kts | 310° |
| 2026-05-07 10:26 | 41.76796 | 12.18148 | 1951 ft | 242 kts | 298° |
| 2026-05-07 10:26 | 41.77591 | 12.16118 | 2298 ft | 254 kts | 297° |
| 2026-05-07 10:27 | 41.78404 | 12.13987 | 2811 ft | 259 kts | 297° |
| 2026-05-07 10:27 | 41.79224 | 12.11830 | 3385 ft | 261 kts | 297° |
| 2026-05-07 10:27 | 41.80052 | 12.09649 | 3965 ft | 262 kts | 296° |
| 2026-05-07 10:27 | 41.80881 | 12.07468 | 4553 ft | 264 kts | 296° |
| 2026-05-07 10:28 | 41.81719 | 12.05261 | 5097 ft | 266 kts | 296° |
| 2026-05-07 10:28 | 41.82561 | 12.03043 | 5704 ft | 266 kts | 295° |
| 2026-05-07 10:28 | 41.83386 | 12.00866 | 6326 ft | 265 kts | 295° |
| 2026-05-07 10:28 | 41.84237 | 11.98619 | 6844 ft | 268 kts | 295° |
| 2026-05-07 10:29 | 41.85075 | 11.96406 | 7362 ft | 270 kts | 295° |
| 2026-05-07 10:29 | 41.85927 | 11.94154 | 7888 ft | 271 kts | 295° |
| 2026-05-07 10:29 | 41.86782 | 11.91893 | 8458 ft | 272 kts | 295° |
| 2026-05-07 10:30 | 41.88505 | 11.87333 | 9579 ft | 275 kts | 295° |
| 2026-05-07 10:30 | 41.89370 | 11.85039 | 10139 ft | 277 kts | 294° |
| 2026-05-07 10:30 | 41.90255 | 11.82688 | 10409 ft | 288 kts | 294° |
| 2026-05-07 10:30 | 41.91171 | 11.80251 | 10600 ft | 302 kts | 294° |
| 2026-05-07 10:31 | 41.92137 | 11.77679 | 10798 ft | 315 kts | 294° |
| 2026-05-07 10:31 | 41.93145 | 11.74997 | 10997 ft | 328 kts | 294° |
| 2026-05-07 10:31 | 41.94193 | 11.72207 | 11186 ft | 340 kts | 294° |
| 2026-05-07 10:31 | 41.95276 | 11.69324 | 11466 ft | 348 kts | 294° |
| 2026-05-07 10:32 | 41.96369 | 11.66411 | 11898 ft | 351 kts | 294° |
| 2026-05-07 10:32 | 41.97475 | 11.63464 | 12359 ft | 353 kts | 294° |
| 2026-05-07 10:32 | 41.98582 | 11.60507 | 12788 ft | 356 kts | 294° |
| 2026-05-07 10:32 | 41.99699 | 11.57518 | 13248 ft | 358 kts | 294° |
| 2026-05-07 10:33 | 42.00806 | 11.54556 | 13685 ft | 360 kts | 293° |
| 2026-05-07 10:33 | 42.01937 | 11.51523 | 14091 ft | 363 kts | 293° |
| 2026-05-07 10:33 | 42.03068 | 11.48486 | 14473 ft | 365 kts | 293° |
| 2026-05-07 10:33 | 42.04208 | 11.45422 | 14880 ft | 366 kts | 293° |
| 2026-05-07 10:34 | 42.05353 | 11.42344 | 15315 ft | 367 kts | 293° |
| 2026-05-07 10:34 | 42.06499 | 11.39257 | 15716 ft | 370 kts | 293° |
| 2026-05-07 10:34 | 42.07652 | 11.36150 | 16095 ft | 372 kts | 293° |
| 2026-05-07 10:34 | 42.08813 | 11.33015 | 16483 ft | 374 kts | 293° |
| 2026-05-07 10:35 | 42.09962 | 11.29910 | 16891 ft | 376 kts | 293° |
| 2026-05-07 10:35 | 42.11129 | 11.26754 | 17337 ft | 376 kts | 293° |
| 2026-05-07 10:35 | 42.12297 | 11.23592 | 17724 ft | 378 kts | 293° |
| 2026-05-07 10:35 | 42.13472 | 11.20408 | 18099 ft | 380 kts | 292° |
| 2026-05-07 10:36 | 42.14653 | 11.17202 | 18451 ft | 382 kts | 292° |
| 2026-05-07 10:36 | 42.15836 | 11.13987 | 18779 ft | 384 kts | 292° |
| 2026-05-07 10:36 | 42.17026 | 11.10751 | 19115 ft | 386 kts | 292° |
| 2026-05-07 10:36 | 42.18222 | 11.07495 | 19442 ft | 387 kts | 292° |
| 2026-05-07 10:37 | 42.19418 | 11.04234 | 19777 ft | 389 kts | 292° |
| 2026-05-07 10:37 | 42.20213 | 11.02063 | 19993 ft | 390 kts | 292° |
| 2026-05-07 10:37 | 42.21418 | 10.98771 | 20313 ft | 392 kts | 292° |
| 2026-05-07 10:37 | 42.23022 | 10.94385 | 20735 ft | 394 kts | 292° |
| 2026-05-07 10:38 | 42.24235 | 10.91061 | 21061 ft | 396 kts | 292° |
| 2026-05-07 10:38 | 42.25059 | 10.88804 | 21281 ft | 397 kts | 291° |
| 2026-05-07 10:38 | 42.26279 | 10.85456 | 21594 ft | 398 kts | 291° |
| 2026-05-07 10:38 | 42.27508 | 10.82137 | 21889 ft | 401 kts | 293° |
| 2026-05-07 10:39 | 42.29039 | 10.78936 | 22192 ft | 409 kts | 303° |
| 2026-05-07 10:39 | 42.31041 | 10.76146 | 22503 ft | 418 kts | 313° |
| 2026-05-07 10:39 | 42.33353 | 10.73709 | 22794 ft | 424 kts | 319° |
| 2026-05-07 10:39 | 42.35827 | 10.71492 | 23070 ft | 429 kts | 322° |
| 2026-05-07 10:40 | 42.38378 | 10.69373 | 23366 ft | 431 kts | 323° |
| 2026-05-07 10:40 | 42.40955 | 10.67274 | 23648 ft | 433 kts | 323° |
| 2026-05-07 10:40 | 42.43508 | 10.65177 | 23896 ft | 435 kts | 322° |
| 2026-05-07 10:40 | 42.46083 | 10.63025 | 24149 ft | 435 kts | 322° |
| 2026-05-07 10:41 | 42.48651 | 10.60842 | 24405 ft | 436 kts | 322° |
| 2026-05-07 10:41 | 42.51220 | 10.58632 | 24674 ft | 437 kts | 321° |
| 2026-05-07 10:41 | 42.53783 | 10.56411 | 24986 ft | 438 kts | 321° |
| 2026-05-07 10:41 | 42.56355 | 10.54175 | 25268 ft | 439 kts | 321° |
| 2026-05-07 10:42 | 42.58922 | 10.51938 | 25546 ft | 440 kts | 321° |
| 2026-05-07 10:42 | 42.61524 | 10.49668 | 25818 ft | 442 kts | 321° |
| 2026-05-07 10:42 | 42.64119 | 10.47403 | 26092 ft | 443 kts | 321° |
| 2026-05-07 10:42 | 42.66715 | 10.45137 | 26371 ft | 445 kts | 320° |
| 2026-05-07 10:43 | 42.69340 | 10.42878 | 26650 ft | 448 kts | 323° |
| 2026-05-07 10:43 | 42.72148 | 10.40951 | 26924 ft | 457 kts | 330° |
| 2026-05-07 10:43 | 42.75160 | 10.39602 | 27179 ft | 467 kts | 340° |
| 2026-05-07 10:43 | 42.78385 | 10.38819 | 27553 ft | 472 kts | 345° |
| 2026-05-07 10:44 | 42.81661 | 10.38254 | 27873 ft | 475 kts | 347° |
| 2026-05-07 10:44 | 42.84951 | 10.37797 | 28155 ft | 478 kts | 348° |
| 2026-05-07 10:44 | 42.88272 | 10.37381 | 28399 ft | 480 kts | 348° |
| 2026-05-07 10:44 | 42.91603 | 10.36972 | 28675 ft | 482 kts | 348° |
| 2026-05-07 10:45 | 42.94956 | 10.36551 | 28937 ft | 484 kts | 348° |
| 2026-05-07 10:45 | 42.98300 | 10.36116 | 29225 ft | 485 kts | 348° |
| 2026-05-07 10:45 | 43.01670 | 10.35666 | 29487 ft | 487 kts | 348° |
| 2026-05-07 10:45 | 43.05046 | 10.35206 | 29744 ft | 488 kts | 348° |
| 2026-05-07 10:46 | 43.08438 | 10.34740 | 29999 ft | 490 kts | 348° |
| 2026-05-07 10:46 | 43.11841 | 10.34256 | 30218 ft | 490 kts | 346° |
| 2026-05-07 10:46 | 43.15176 | 10.33368 | 30435 ft | 484 kts | 338° |
| 2026-05-07 10:46 | 43.18283 | 10.31869 | 30663 ft | 476 kts | 329° |
| 2026-05-07 10:47 | 43.21166 | 10.29721 | 30883 ft | 468 kts | 320° |
| 2026-05-07 10:47 | 43.23858 | 10.27222 | 31093 ft | 467 kts | 318° |
| 2026-05-07 10:47 | 43.26501 | 10.24609 | 31289 ft | 467 kts | 317° |
| 2026-05-07 10:47 | 43.29104 | 10.21953 | 31507 ft | 467 kts | 316° |
| 2026-05-07 10:48 | 43.31708 | 10.19264 | 31721 ft | 468 kts | 316° |
| 2026-05-07 10:48 | 43.34305 | 10.16582 | 31980 ft | 468 kts | 316° |
| 2026-05-07 10:48 | 43.36908 | 10.13900 | 32218 ft | 467 kts | 316° |
| 2026-05-07 10:48 | 43.39517 | 10.11224 | 32497 ft | 466 kts | 316° |
| 2026-05-07 10:49 | 43.42123 | 10.08556 | 32741 ft | 466 kts | 316° |
| 2026-05-07 10:49 | 43.44724 | 10.05898 | 33015 ft | 465 kts | 316° |
| 2026-05-07 10:49 | 43.47309 | 10.03254 | 33274 ft | 463 kts | 316° |
| 2026-05-07 10:49 | 43.49864 | 10.00640 | 33521 ft | 462 kts | 316° |
| 2026-05-07 10:50 | 43.52448 | 9.97992 | 33783 ft | 461 kts | 316° |
| 2026-05-07 10:50 | 43.55020 | 9.95353 | 34022 ft | 460 kts | 316° |
| 2026-05-07 10:50 | 43.57584 | 9.92719 | 34215 ft | 460 kts | 316° |
| 2026-05-07 10:50 | 43.60147 | 9.90082 | 34396 ft | 460 kts | 316° |
| 2026-05-07 10:51 | 43.65301 | 9.84766 | 34599 ft | 463 kts | 316° |
| 2026-05-07 10:51 | 43.67880 | 9.82105 | 34827 ft | 462 kts | 316° |
| 2026-05-07 10:51 | 43.70449 | 9.79452 | 35030 ft | 460 kts | 316° |
| 2026-05-07 10:52 | 43.73016 | 9.76799 | 35188 ft | 460 kts | 316° |
| 2026-05-07 10:52 | 43.75581 | 9.74143 | 35294 ft | 461 kts | 316° |
| 2026-05-07 10:52 | 43.78115 | 9.71516 | 35434 ft | 461 kts | 316° |
| 2026-05-07 10:52 | 43.80682 | 9.68852 | 35585 ft | 461 kts | 316° |
| 2026-05-07 10:53 | 43.83255 | 9.66179 | 35695 ft | 462 kts | 316° |
| 2026-05-07 10:53 | 43.85827 | 9.63502 | 35770 ft | 463 kts | 317° |
| 2026-05-07 10:53 | 43.88411 | 9.60811 | 35908 ft | 463 kts | 317° |
| 2026-05-07 10:53 | 43.90988 | 9.58126 | 36007 ft | 464 kts | 317° |
| 2026-05-07 10:54 | 43.96182 | 9.52700 | 36009 ft | 469 kts | 317° |
| 2026-05-07 10:54 | 44.01407 | 9.47235 | 36010 ft | 469 kts | 317° |
| 2026-05-07 10:55 | 44.06595 | 9.41797 | 36011 ft | 469 kts | 317° |
| 2026-05-07 10:55 | 44.11812 | 9.36314 | 36004 ft | 470 kts | 317° |
| 2026-05-07 10:56 | 44.17029 | 9.30819 | 36004 ft | 470 kts | 317° |
| 2026-05-07 10:56 | 44.22241 | 9.25316 | 36004 ft | 470 kts | 317° |
| 2026-05-07 10:57 | 44.27449 | 9.19803 | 36004 ft | 471 kts | 317° |
| 2026-05-07 10:57 | 44.32679 | 9.14254 | 36008 ft | 472 kts | 317° |
| 2026-05-07 10:58 | 44.37909 | 9.08694 | 36034 ft | 472 kts | 317° |
| 2026-05-07 10:58 | 44.43141 | 9.03121 | 36014 ft | 472 kts | 317° |
| 2026-05-07 10:59 | 44.48330 | 8.97580 | 36013 ft | 472 kts | 317° |
| 2026-05-07 10:59 | 44.53550 | 8.91990 | 36016 ft | 472 kts | 317° |
| 2026-05-07 11:00 | 44.58762 | 8.86399 | 36025 ft | 472 kts | 317° |
| 2026-05-07 11:00 | 44.63982 | 8.80784 | 36004 ft | 472 kts | 317° |
| 2026-05-07 11:01 | 44.69190 | 8.75166 | 35991 ft | 470 kts | 316° |
| 2026-05-07 11:01 | 44.74120 | 8.69312 | 35992 ft | 464 kts | 313° |
| 2026-05-07 11:02 | 44.78914 | 8.63222 | 36000 ft | 463 kts | 312° |
| 2026-05-07 11:02 | 44.83691 | 8.57140 | 35985 ft | 463 kts | 313° |
| 2026-05-07 11:03 | 44.88490 | 8.51081 | 36007 ft | 463 kts | 313° |
| 2026-05-07 11:03 | 44.93280 | 8.45048 | 35993 ft | 465 kts | 313° |
| 2026-05-07 11:04 | 44.98110 | 8.38958 | 35993 ft | 465 kts | 313° |
| 2026-05-07 11:04 | 45.02933 | 8.32861 | 35994 ft | 465 kts | 313° |
| 2026-05-07 11:05 | 45.07758 | 8.26747 | 35995 ft | 465 kts | 313° |
| 2026-05-07 11:05 | 45.12542 | 8.20667 | 35994 ft | 466 kts | 313° |
| 2026-05-07 11:06 | 45.17362 | 8.14526 | 35993 ft | 466 kts | 313° |
| 2026-05-07 11:06 | 45.22189 | 8.08363 | 35999 ft | 466 kts | 313° |
| 2026-05-07 11:07 | 45.27009 | 8.02193 | 36006 ft | 466 kts | 313° |
| 2026-05-07 11:07 | 45.31794 | 7.96055 | 36017 ft | 466 kts | 313° |
| 2026-05-07 11:08 | 45.36609 | 7.89861 | 36004 ft | 468 kts | 313° |
| 2026-05-07 11:08 | 45.41438 | 7.83637 | 36007 ft | 468 kts | 313° |
| 2026-05-07 11:09 | 45.46262 | 7.77405 | 36007 ft | 468 kts | 313° |
| 2026-05-07 11:09 | 45.51083 | 7.71170 | 35998 ft | 467 kts | 314° |
| 2026-05-07 11:10 | 45.55935 | 7.64969 | 35995 ft | 468 kts | 314° |
| 2026-05-07 11:10 | 45.60796 | 7.58780 | 35997 ft | 469 kts | 314° |
| 2026-05-07 11:11 | 45.65635 | 7.52601 | 36017 ft | 469 kts | 314° |
| 2026-05-07 11:11 | 45.70502 | 7.46365 | 35957 ft | 468 kts | 314° |
| 2026-05-07 11:12 | 45.75331 | 7.40158 | 35969 ft | 469 kts | 314° |
| 2026-05-07 11:12 | 45.80301 | 7.34057 | 35969 ft | 473 kts | 320° |
| 2026-05-07 11:13 | 45.85622 | 7.28496 | 35970 ft | 474 kts | 321° |
| 2026-05-07 11:13 | 45.91023 | 7.23000 | 35987 ft | 475 kts | 321° |
| 2026-05-07 11:14 | 45.96409 | 7.17534 | 35996 ft | 474 kts | 321° |
| 2026-05-07 11:14 | 46.01801 | 7.12027 | 36008 ft | 474 kts | 321° |
| 2026-05-07 11:15 | 46.07128 | 7.06561 | 36011 ft | 473 kts | 321° |
| 2026-05-07 11:15 | 46.12490 | 7.01045 | 36009 ft | 473 kts | 321° |
| 2026-05-07 11:16 | 46.17844 | 6.95527 | 36011 ft | 473 kts | 321° |
| 2026-05-07 11:16 | 46.23233 | 6.89960 | 35994 ft | 476 kts | 321° |
| 2026-05-07 11:17 | 46.28609 | 6.84391 | 36005 ft | 475 kts | 321° |
| 2026-05-07 11:17 | 46.33978 | 6.78818 | 36001 ft | 474 kts | 321° |
| 2026-05-07 11:18 | 46.39299 | 6.73281 | 36007 ft | 474 kts | 321° |
| 2026-05-07 11:18 | 46.44540 | 6.67460 | 36004 ft | 472 kts | 314° |
| 2026-05-07 11:19 | 46.49206 | 6.60761 | 36007 ft | 471 kts | 311° |
| 2026-05-07 11:19 | 46.53753 | 6.53893 | 36006 ft | 471 kts | 311° |
| 2026-05-07 11:20 | 46.58235 | 6.47050 | 36012 ft | 471 kts | 311° |
| 2026-05-07 11:20 | 46.62749 | 6.40160 | 36009 ft | 470 kts | 311° |
| 2026-05-07 11:21 | 46.67276 | 6.33254 | 36013 ft | 470 kts | 311° |
| 2026-05-07 11:21 | 46.71789 | 6.26356 | 36021 ft | 470 kts | 311° |
| 2026-05-07 11:22 | 46.76302 | 6.19438 | 36020 ft | 470 kts | 311° |
| 2026-05-07 11:22 | 46.80813 | 6.12507 | 36036 ft | 470 kts | 311° |
| 2026-05-07 11:23 | 46.85289 | 6.05612 | 36026 ft | 471 kts | 311° |
| 2026-05-07 11:23 | 46.89791 | 5.98657 | 36028 ft | 471 kts | 311° |
| 2026-05-07 11:24 | 46.94416 | 5.91831 | 36032 ft | 473 kts | 317° |
| 2026-05-07 11:24 | 46.98958 | 5.87316 | 36032 ft | 477 kts | 327° |
| 2026-05-07 11:25 | 47.04797 | 5.82654 | 36039 ft | 478 kts | 329° |
| 2026-05-07 11:25 | 47.10731 | 5.78138 | 36030 ft | 480 kts | 330° |
| 2026-05-07 11:26 | 47.16649 | 5.73624 | 36034 ft | 479 kts | 329° |
| 2026-05-07 11:26 | 47.22520 | 5.69099 | 36035 ft | 478 kts | 329° |
| 2026-05-07 11:27 | 47.28418 | 5.64522 | 36035 ft | 479 kts | 329° |
| 2026-05-07 11:27 | 47.34308 | 5.59938 | 36034 ft | 479 kts | 329° |
| 2026-05-07 11:28 | 47.40205 | 5.55338 | 36035 ft | 479 kts | 329° |
| 2026-05-07 11:28 | 47.46067 | 5.50755 | 36038 ft | 479 kts | 329° |
| 2026-05-07 11:29 | 47.51692 | 5.45536 | 36042 ft | 476 kts | 318° |
| 2026-05-07 11:29 | 47.56168 | 5.38416 | 36034 ft | 472 kts | 306° |
| 2026-05-07 11:30 | 47.60116 | 5.30645 | 36046 ft | 471 kts | 304° |
| 2026-05-07 11:30 | 47.63962 | 5.22779 | 36039 ft | 471 kts | 304° |
| 2026-05-07 11:31 | 47.67822 | 5.14897 | 36039 ft | 471 kts | 304° |
| 2026-05-07 11:31 | 47.71693 | 5.07027 | 36045 ft | 473 kts | 304° |
| 2026-05-07 11:32 | 47.77490 | 4.95238 | 36046 ft | 473 kts | 304° |
| 2026-05-07 11:33 | 47.81373 | 4.87312 | 36053 ft | 473 kts | 304° |
| 2026-05-07 11:33 | 47.85218 | 4.79440 | 36050 ft | 473 kts | 304° |
| 2026-05-07 11:34 | 47.89079 | 4.71509 | 36055 ft | 473 kts | 304° |
| 2026-05-07 11:34 | 47.92941 | 4.63554 | 36060 ft | 473 kts | 304° |
| 2026-05-07 11:35 | 47.96799 | 4.55583 | 36057 ft | 474 kts | 304° |
| 2026-05-07 11:35 | 48.00654 | 4.47597 | 36055 ft | 474 kts | 304° |
| 2026-05-07 11:36 | 48.04505 | 4.39594 | 36058 ft | 474 kts | 304° |
| 2026-05-07 11:36 | 48.08342 | 4.31598 | 36063 ft | 474 kts | 304° |
| 2026-05-07 11:37 | 48.12179 | 4.23580 | 36062 ft | 474 kts | 304° |
| 2026-05-07 11:37 | 48.16024 | 4.15519 | 36074 ft | 475 kts | 304° |
| 2026-05-07 11:38 | 48.19864 | 4.07445 | 36075 ft | 475 kts | 304° |
| 2026-05-07 11:38 | 48.23700 | 3.99359 | 36072 ft | 475 kts | 304° |
| 2026-05-07 11:39 | 48.27983 | 3.91855 | 36075 ft | 477 kts | 311° |
| 2026-05-07 11:39 | 48.32537 | 3.84595 | 36074 ft | 477 kts | 312° |
| 2026-05-07 11:40 | 48.37129 | 3.77377 | 36072 ft | 477 kts | 312° |
| 2026-05-07 11:40 | 48.41721 | 3.70131 | 36063 ft | 478 kts | 312° |
| 2026-05-07 11:41 | 48.46297 | 3.62870 | 36060 ft | 478 kts | 311° |
| 2026-05-07 11:41 | 48.50853 | 3.55611 | 36059 ft | 478 kts | 311° |
| 2026-05-07 11:42 | 48.55421 | 3.48310 | 36058 ft | 478 kts | 311° |
| 2026-05-07 11:42 | 48.59984 | 3.40998 | 36059 ft | 478 kts | 311° |
| 2026-05-07 11:43 | 48.64548 | 3.33664 | 36062 ft | 479 kts | 311° |
| 2026-05-07 11:43 | 48.69109 | 3.26314 | 36058 ft | 479 kts | 311° |
| 2026-05-07 11:44 | 48.73669 | 3.18945 | 36059 ft | 479 kts | 311° |
| 2026-05-07 11:44 | 48.78224 | 3.11565 | 36063 ft | 479 kts | 311° |
| 2026-05-07 11:45 | 48.82813 | 3.04223 | 36062 ft | 480 kts | 315° |
| 2026-05-07 11:45 | 48.88157 | 2.98230 | 36065 ft | 483 kts | 326° |
| 2026-05-07 11:46 | 48.93941 | 2.93020 | 36064 ft | 484 kts | 328° |
| 2026-05-07 11:46 | 48.99793 | 2.87946 | 36064 ft | 484 kts | 328° |
| 2026-05-07 11:47 | 49.05646 | 2.82853 | 36076 ft | 484 kts | 328° |
| 2026-05-07 11:47 | 49.11486 | 2.77724 | 36079 ft | 484 kts | 328° |
| 2026-05-07 11:48 | 49.17321 | 2.72569 | 36058 ft | 484 kts | 328° |
| 2026-05-07 11:48 | 49.23120 | 2.67431 | 36074 ft | 484 kts | 328° |
| 2026-05-07 11:49 | 49.28943 | 2.62259 | 36061 ft | 484 kts | 328° |
| 2026-05-07 11:49 | 49.34767 | 2.57071 | 36064 ft | 484 kts | 328° |
| 2026-05-07 11:50 | 49.40599 | 2.51863 | 36083 ft | 484 kts | 328° |
| 2026-05-07 11:50 | 49.46423 | 2.46647 | 36064 ft | 484 kts | 328° |
| 2026-05-07 11:51 | 49.52436 | 2.41939 | 36072 ft | 487 kts | 338° |
| 2026-05-07 11:51 | 49.58860 | 2.38714 | 36070 ft | 489 kts | 341° |
| 2026-05-07 11:52 | 49.65387 | 2.35749 | 36069 ft | 489 kts | 342° |
| 2026-05-07 11:52 | 49.71917 | 2.32822 | 36070 ft | 489 kts | 342° |
| 2026-05-07 11:53 | 49.78465 | 2.29856 | 36069 ft | 489 kts | 341° |
| 2026-05-07 11:53 | 49.84969 | 2.26882 | 36066 ft | 489 kts | 341° |
| 2026-05-07 11:54 | 49.91509 | 2.23878 | 36068 ft | 489 kts | 341° |
| 2026-05-07 11:54 | 49.98030 | 2.20872 | 36068 ft | 489 kts | 341° |
| 2026-05-07 11:55 | 50.04525 | 2.17868 | 36062 ft | 489 kts | 341° |
| 2026-05-07 11:55 | 50.11054 | 2.14790 | 36039 ft | 489 kts | 341° |
| 2026-05-07 11:56 | 50.17574 | 2.11638 | 36043 ft | 489 kts | 340° |
| 2026-05-07 11:56 | 50.24045 | 2.08380 | 36023 ft | 489 kts | 340° |
| 2026-05-07 11:57 | 50.30493 | 2.04949 | 35978 ft | 489 kts | 339° |
| 2026-05-07 11:57 | 50.36853 | 2.01352 | 35989 ft | 488 kts | 338° |
| 2026-05-07 11:58 | 50.43207 | 1.97553 | 36002 ft | 488 kts | 336° |
| 2026-05-07 11:58 | 50.49504 | 1.93533 | 35952 ft | 488 kts | 335° |
| 2026-05-07 11:59 | 50.55739 | 1.89283 | 35946 ft | 488 kts | 334° |
| 2026-05-07 11:59 | 50.61896 | 1.84819 | 35993 ft | 486 kts | 333° |
| 2026-05-07 12:00 | 50.67934 | 1.80155 | 35963 ft | 486 kts | 331° |
| 2026-05-07 12:00 | 50.73930 | 1.75176 | 35907 ft | 487 kts | 329° |
| 2026-05-07 12:01 | 50.79835 | 1.69897 | 35929 ft | 486 kts | 328° |
| 2026-05-07 12:01 | 50.85608 | 1.64365 | 35961 ft | 484 kts | 326° |
| 2026-05-07 12:02 | 50.91286 | 1.58582 | 35917 ft | 485 kts | 325° |
| 2026-05-07 12:02 | 50.96878 | 1.52556 | 35869 ft | 485 kts | 323° |
| 2026-05-07 12:03 | 51.02324 | 1.46370 | 35934 ft | 484 kts | 322° |
| 2026-05-07 12:03 | 51.07702 | 1.39937 | 35948 ft | 483 kts | 321° |
| 2026-05-07 12:04 | 51.12990 | 1.33307 | 35863 ft | 484 kts | 319° |
| 2026-05-07 12:04 | 51.18185 | 1.26485 | 35870 ft | 484 kts | 318° |
| 2026-05-07 12:05 | 51.23288 | 1.19484 | 35929 ft | 482 kts | 317° |
| 2026-05-07 12:05 | 51.28279 | 1.12311 | 35899 ft | 482 kts | 315° |
| 2026-05-07 12:06 | 51.33132 | 1.04981 | 35860 ft | 483 kts | 314° |
| 2026-05-07 12:06 | 51.37909 | 0.97372 | 35844 ft | 483 kts | 313° |
| 2026-05-07 12:07 | 51.42549 | 0.89560 | 35820 ft | 484 kts | 311° |
| 2026-05-07 12:07 | 51.47052 | 0.81536 | 35810 ft | 484 kts | 310° |
| 2026-05-07 12:08 | 51.51384 | 0.73361 | 35828 ft | 483 kts | 308° |
| 2026-05-07 12:08 | 51.55591 | 0.64949 | 35831 ft | 482 kts | 307° |
| 2026-05-07 12:09 | 51.59632 | 0.56330 | 35774 ft | 483 kts | 305° |
| 2026-05-07 12:09 | 51.63525 | 0.47450 | 35701 ft | 485 kts | 303° |
| 2026-05-07 12:10 | 51.67280 | 0.38427 | 35757 ft | 484 kts | 302° |
| 2026-05-07 12:10 | 51.70867 | 0.29326 | 35792 ft | 483 kts | 301° |
| 2026-05-07 12:11 | 51.74324 | 0.20031 | 35757 ft | 484 kts | 299° |
| 2026-05-07 12:11 | 51.77085 | 0.12153 | 35730 ft | 485 kts | 298° |
| 2026-05-07 12:12 | 51.80256 | 0.02529 | 35777 ft | 483 kts | 296° |
| 2026-05-07 12:12 | 51.83228 | -0.07183 | 35725 ft | 485 kts | 294° |
| 2026-05-07 12:12 | 51.84653 | -0.12166 | 35589 ft | 489 kts | 293° |
| 2026-05-07 12:13 | 51.86029 | -0.17212 | 35499 ft | 491 kts | 292° |
| 2026-05-07 12:13 | 51.88611 | -0.27419 | 35635 ft | 487 kts | 290° |
| 2026-05-07 12:13 | 51.89813 | -0.32542 | 35767 ft | 484 kts | 289° |
| 2026-05-07 12:14 | 51.90950 | -0.37658 | 35831 ft | 483 kts | 288° |
| 2026-05-07 12:14 | 51.93074 | -0.48055 | 35686 ft | 487 kts | 286° |
| 2026-05-07 12:14 | 51.94041 | -0.53253 | 35580 ft | 489 kts | 285° |
| 2026-05-07 12:15 | 51.94972 | -0.58587 | 35564 ft | 490 kts | 284° |
| 2026-05-07 12:15 | 51.96652 | -0.69229 | 35760 ft | 485 kts | 282° |
| 2026-05-07 12:16 | 51.98110 | -0.79886 | 35837 ft | 483 kts | 281° |
| 2026-05-07 12:16 | 51.99373 | -0.90659 | 35657 ft | 488 kts | 279° |
| 2026-05-07 12:17 | 52.00433 | -1.01559 | 35623 ft | 488 kts | 277° |
| 2026-05-07 12:17 | 52.01254 | -1.12389 | 35788 ft | 484 kts | 275° |
| 2026-05-07 12:18 | 52.01842 | -1.23265 | 35814 ft | 484 kts | 273° |
| 2026-05-07 12:18 | 52.02212 | -1.34230 | 35667 ft | 487 kts | 271° |
| 2026-05-07 12:19 | 52.02367 | -1.45254 | 35688 ft | 486 kts | 269° |
| 2026-05-07 12:19 | 52.02256 | -1.56200 | 35795 ft | 484 kts | 266° |
| 2026-05-07 12:20 | 52.01777 | -1.67097 | 35738 ft | 485 kts | 263° |
| 2026-05-07 12:20 | 52.00980 | -1.77948 | 35684 ft | 487 kts | 261° |
| 2026-05-07 12:21 | 51.99901 | -1.88773 | 35773 ft | 484 kts | 258° |
| 2026-05-07 12:21 | 51.98591 | -1.99476 | 35860 ft | 482 kts | 257° |
| 2026-05-07 12:22 | 51.97082 | -2.10119 | 35814 ft | 484 kts | 255° |
| 2026-05-07 12:22 | 51.95419 | -2.20690 | 35771 ft | 484 kts | 254° |
| 2026-05-07 12:23 | 51.93600 | -2.31189 | 35824 ft | 483 kts | 252° |
| 2026-05-07 12:23 | 51.91610 | -2.41513 | 35850 ft | 482 kts | 251° |
| 2026-05-07 12:24 | 51.89438 | -2.51792 | 35840 ft | 482 kts | 249° |
| 2026-05-07 12:24 | 51.87139 | -2.61954 | 35859 ft | 481 kts | 248° |
| 2026-05-07 12:25 | 51.84708 | -2.72024 | 35854 ft | 480 kts | 247° |
| 2026-05-07 12:25 | 51.82134 | -2.82023 | 35866 ft | 481 kts | 245° |
| 2026-05-07 12:26 | 51.79424 | -2.91894 | 35879 ft | 480 kts | 243° |
| 2026-05-07 12:26 | 51.76583 | -3.01641 | 35952 ft | 478 kts | 243° |
| 2026-05-07 12:27 | 51.73575 | -3.11099 | 36007 ft | 476 kts | 240° |
| 2026-05-07 12:27 | 51.70336 | -3.20446 | 35933 ft | 477 kts | 239° |
| 2026-05-07 12:28 | 51.66936 | -3.29647 | 35874 ft | 477 kts | 237° |
| 2026-05-07 12:28 | 51.63424 | -3.38618 | 35925 ft | 476 kts | 236° |
| 2026-05-07 12:29 | 51.59743 | -3.47465 | 35937 ft | 475 kts | 234° |
| 2026-05-07 12:29 | 51.55920 | -3.56158 | 35876 ft | 476 kts | 233° |
| 2026-05-07 12:30 | 51.51946 | -3.64675 | 35874 ft | 476 kts | 231° |
| 2026-05-07 12:30 | 51.47801 | -3.72933 | 35965 ft | 473 kts | 229° |
| 2026-05-07 12:31 | 51.43493 | -3.80838 | 35959 ft | 473 kts | 227° |
| 2026-05-07 12:31 | 51.38972 | -3.88533 | 35863 ft | 474 kts | 225° |
| 2026-05-07 12:32 | 51.34280 | -3.95964 | 35869 ft | 473 kts | 223° |
| 2026-05-07 12:32 | 51.29445 | -4.03096 | 35941 ft | 472 kts | 221° |
| 2026-05-07 12:33 | 51.21944 | -4.13219 | 35866 ft | 473 kts | 218° |
| 2026-05-07 12:33 | 51.16733 | -4.19617 | 35897 ft | 472 kts | 217° |
| 2026-05-07 12:34 | 51.11405 | -4.25714 | 35919 ft | 471 kts | 215° |
| 2026-05-07 12:34 | 51.05960 | -4.31536 | 35909 ft | 471 kts | 213° |
| 2026-05-07 12:35 | 51.00444 | -4.37043 | 35919 ft | 471 kts | 211° |
| 2026-05-07 12:35 | 50.94751 | -4.42338 | 35909 ft | 471 kts | 210° |
| 2026-05-07 12:36 | 50.89020 | -4.47281 | 35900 ft | 471 kts | 208° |
| 2026-05-07 12:36 | 50.83150 | -4.51954 | 35906 ft | 471 kts | 206° |
| 2026-05-07 12:37 | 50.77193 | -4.56312 | 35894 ft | 471 kts | 204° |
| 2026-05-07 12:37 | 50.71151 | -4.60303 | 35916 ft | 471 kts | 202° |
| 2026-05-07 12:38 | 50.65009 | -4.63926 | 35907 ft | 471 kts | 200° |
| 2026-05-07 12:38 | 50.58819 | -4.67147 | 35890 ft | 472 kts | 198° |
| 2026-05-07 12:39 | 50.52517 | -4.70041 | 35911 ft | 471 kts | 196° |
| 2026-05-07 12:39 | 50.46161 | -4.72600 | 35947 ft | 470 kts | 194° |
| 2026-05-07 12:40 | 50.39766 | -4.74814 | 35911 ft | 471 kts | 192° |
| 2026-05-07 12:40 | 50.33344 | -4.76663 | 35868 ft | 472 kts | 190° |
| 2026-05-07 12:41 | 50.26856 | -4.78174 | 35902 ft | 471 kts | 188° |
| 2026-05-07 12:41 | 50.20346 | -4.79296 | 35915 ft | 471 kts | 186° |
| 2026-05-07 12:42 | 50.13799 | -4.80007 | 35866 ft | 472 kts | 184° |
| 2026-05-07 12:42 | 50.07227 | -4.80335 | 35851 ft | 472 kts | 181° |
| 2026-05-07 12:43 | 50.00661 | -4.80303 | 35894 ft | 471 kts | 180° |
| 2026-05-07 12:43 | 49.94106 | -4.79932 | 35873 ft | 472 kts | 178° |
| 2026-05-07 12:44 | 49.87544 | -4.79235 | 35832 ft | 472 kts | 176° |
| 2026-05-07 12:44 | 49.81035 | -4.78233 | 35847 ft | 472 kts | 174° |
| 2026-05-07 12:45 | 49.74522 | -4.76931 | 35879 ft | 471 kts | 173° |
| 2026-05-07 12:45 | 49.68035 | -4.75342 | 35828 ft | 473 kts | 171° |
| 2026-05-07 12:46 | 49.61564 | -4.73464 | 35815 ft | 473 kts | 169° |
| 2026-05-07 12:46 | 49.55180 | -4.71322 | 35859 ft | 472 kts | 168° |
| 2026-05-07 12:47 | 49.48788 | -4.68891 | 35826 ft | 472 kts | 167° |
| 2026-05-07 12:47 | 49.42434 | -4.66188 | 35784 ft | 474 kts | 165° |
| 2026-05-07 12:48 | 49.36170 | -4.63239 | 35809 ft | 473 kts | 163° |
| 2026-05-07 12:48 | 49.29939 | -4.60021 | 35845 ft | 472 kts | 162° |
| 2026-05-07 12:49 | 49.23758 | -4.56542 | 35789 ft | 474 kts | 160° |
| 2026-05-07 12:49 | 49.17627 | -4.52799 | 35772 ft | 474 kts | 159° |
| 2026-05-07 12:50 | 49.11580 | -4.48811 | 35836 ft | 473 kts | 158° |
| 2026-05-07 12:50 | 49.05606 | -4.44578 | 35806 ft | 474 kts | 156° |
| 2026-05-07 12:51 | 48.99724 | -4.40125 | 35757 ft | 475 kts | 154° |
| 2026-05-07 12:51 | 48.93885 | -4.35411 | 35758 ft | 475 kts | 153° |
| 2026-05-07 12:52 | 48.88130 | -4.30465 | 35789 ft | 474 kts | 152° |
| 2026-05-07 12:52 | 48.82462 | -4.25297 | 35758 ft | 476 kts | 150° |
| 2026-05-07 12:53 | 48.76870 | -4.19897 | 35731 ft | 476 kts | 149° |
| 2026-05-07 12:53 | 48.71408 | -4.14322 | 35757 ft | 476 kts | 147° |
| 2026-05-07 12:54 | 48.66018 | -4.08485 | 35761 ft | 476 kts | 146° |
| 2026-05-07 12:54 | 48.60738 | -4.02412 | 35733 ft | 478 kts | 144° |
| 2026-05-07 12:55 | 48.55561 | -3.96120 | 35734 ft | 478 kts | 142° |
| 2026-05-07 12:55 | 48.50490 | -3.89623 | 35759 ft | 477 kts | 141° |
| 2026-05-07 12:56 | 48.45542 | -3.82924 | 35714 ft | 479 kts | 139° |
| 2026-05-07 12:56 | 48.40692 | -3.76000 | 35678 ft | 480 kts | 138° |
| 2026-05-07 12:57 | 48.35972 | -3.68894 | 35716 ft | 480 kts | 136° |
| 2026-05-07 12:57 | 48.31395 | -3.61608 | 35739 ft | 480 kts | 135° |
| 2026-05-07 12:58 | 48.26951 | -3.54180 | 35709 ft | 482 kts | 134° |
| 2026-05-07 12:58 | 48.22579 | -3.46554 | 35723 ft | 482 kts | 132° |
| 2026-05-07 12:59 | 48.19028 | -3.40052 | 35737 ft | 481 kts | 131° |
| 2026-05-07 12:59 | 48.14935 | -3.32081 | 35696 ft | 483 kts | 129° |
| 2026-05-07 13:00 | 48.11020 | -3.23954 | 35668 ft | 485 kts | 127° |
| 2026-05-07 13:00 | 48.07234 | -3.15611 | 35722 ft | 484 kts | 126° |
| 2026-05-07 13:01 | 48.03621 | -3.07091 | 35739 ft | 484 kts | 123° |
| 2026-05-07 13:01 | 48.00187 | -2.98402 | 35697 ft | 486 kts | 122° |
| 2026-05-07 13:02 | 47.96922 | -2.89550 | 35664 ft | 488 kts | 120° |
| 2026-05-07 13:02 | 47.93830 | -2.80532 | 35671 ft | 488 kts | 118° |
| 2026-05-07 13:03 | 47.90928 | -2.71374 | 35681 ft | 488 kts | 116° |
| 2026-05-07 13:03 | 47.88204 | -2.62075 | 35681 ft | 490 kts | 115° |
| 2026-05-07 13:04 | 47.85664 | -2.52706 | 35677 ft | 491 kts | 113° |
| 2026-05-07 13:04 | 47.83268 | -2.43171 | 35705 ft | 491 kts | 112° |
| 2026-05-07 13:05 | 47.81050 | -2.33533 | 35688 ft | 492 kts | 110° |
| 2026-05-07 13:05 | 47.79031 | -2.23850 | 35680 ft | 493 kts | 108° |
| 2026-05-07 13:06 | 47.77177 | -2.14030 | 35678 ft | 493 kts | 107° |
| 2026-05-07 13:06 | 47.75484 | -2.04129 | 35660 ft | 495 kts | 105° |
| 2026-05-07 13:07 | 47.73936 | -1.94142 | 35614 ft | 496 kts | 104° |
| 2026-05-07 13:07 | 47.72556 | -1.84106 | 35660 ft | 496 kts | 103° |
| 2026-05-07 13:08 | 47.71338 | -1.74017 | 35676 ft | 496 kts | 101° |
| 2026-05-07 13:08 | 47.70282 | -1.63950 | 35633 ft | 498 kts | 100° |
| 2026-05-07 13:09 | 47.69378 | -1.53736 | 35584 ft | 499 kts | 98° |
| 2026-05-07 13:09 | 47.68642 | -1.43489 | 35642 ft | 498 kts | 97° |
| 2026-05-07 13:10 | 47.68079 | -1.33226 | 35667 ft | 499 kts | 96° |
| 2026-05-07 13:10 | 47.67658 | -1.22889 | 35619 ft | 504 kts | 95° |
| 2026-05-07 13:11 | 47.67302 | -1.12547 | 35700 ft | 503 kts | 94° |
| 2026-05-07 13:11 | 47.67153 | -1.07378 | 35804 ft | 501 kts | 94° |
| 2026-05-07 13:11 | 47.67027 | -1.02210 | 35858 ft | 500 kts | 94° |
| 2026-05-07 13:12 | 47.66855 | -0.91865 | 35740 ft | 503 kts | 92° |
| 2026-05-07 13:12 | 47.66800 | -0.81504 | 35641 ft | 507 kts | 91° |
| 2026-05-07 13:13 | 47.66916 | -0.71076 | 35771 ft | 504 kts | 90° |
| 2026-05-07 13:13 | 47.67228 | -0.60692 | 35825 ft | 503 kts | 88° |
| 2026-05-07 13:14 | 47.67707 | -0.50300 | 35686 ft | 506 kts | 87° |
| 2026-05-07 13:14 | 47.68295 | -0.39881 | 35674 ft | 506 kts | 86° |
| 2026-05-07 13:15 | 47.69008 | -0.29514 | 35770 ft | 504 kts | 85° |
| 2026-05-07 13:15 | 47.69862 | -0.19252 | 35739 ft | 505 kts | 83° |
| 2026-05-07 13:16 | 47.70880 | -0.08902 | 35655 ft | 507 kts | 82° |
| 2026-05-07 13:16 | 47.72066 | 0.01402 | 35682 ft | 506 kts | 81° |
| 2026-05-07 13:17 | 47.73426 | 0.11664 | 35703 ft | 506 kts | 79° |
| 2026-05-07 13:17 | 47.74957 | 0.21877 | 35660 ft | 507 kts | 77° |
| 2026-05-07 13:18 | 47.76672 | 0.32066 | 35656 ft | 508 kts | 76° |
| 2026-05-07 13:18 | 47.78573 | 0.42158 | 35685 ft | 507 kts | 74° |
| 2026-05-07 13:19 | 47.80649 | 0.52110 | 35683 ft | 507 kts | 72° |
| 2026-05-07 13:19 | 47.82927 | 0.62055 | 35668 ft | 508 kts | 71° |
| 2026-05-07 13:20 | 47.85390 | 0.71906 | 35695 ft | 507 kts | 69° |
| 2026-05-07 13:20 | 47.88028 | 0.81666 | 35715 ft | 507 kts | 68° |
| 2026-05-07 13:21 | 47.90848 | 0.91320 | 35684 ft | 508 kts | 66° |
| 2026-05-07 13:21 | 47.93825 | 1.00816 | 35664 ft | 508 kts | 64° |
| 2026-05-07 13:22 | 47.96985 | 1.10257 | 35686 ft | 508 kts | 63° |
| 2026-05-07 13:22 | 48.00299 | 1.19574 | 35688 ft | 508 kts | 61° |
| 2026-05-07 13:23 | 48.03751 | 1.28729 | 35687 ft | 508 kts | 59° |
| 2026-05-07 13:23 | 48.07368 | 1.37807 | 35690 ft | 507 kts | 58° |
| 2026-05-07 13:24 | 48.11133 | 1.46758 | 35690 ft | 508 kts | 57° |
| 2026-05-07 13:24 | 48.15045 | 1.55577 | 35692 ft | 508 kts | 55° |
| 2026-05-07 13:25 | 48.19075 | 1.64169 | 35691 ft | 507 kts | 53° |
| 2026-05-07 13:25 | 48.23286 | 1.72664 | 35696 ft | 507 kts | 52° |
| 2026-05-07 13:26 | 48.27632 | 1.80990 | 35741 ft | 506 kts | 50° |
| 2026-05-07 13:26 | 48.32111 | 1.89154 | 35706 ft | 506 kts | 49° |
| 2026-05-07 13:27 | 48.36726 | 1.97158 | 35687 ft | 506 kts | 47° |
| 2026-05-07 13:27 | 48.41439 | 2.04942 | 35694 ft | 506 kts | 46° |
| 2026-05-07 13:28 | 48.46305 | 2.12586 | 35755 ft | 504 kts | 44° |
| 2026-05-07 13:28 | 48.51306 | 2.20050 | 35746 ft | 504 kts | 43° |
| 2026-05-07 13:29 | 48.56372 | 2.27279 | 35714 ft | 505 kts | 41° |
| 2026-05-07 13:29 | 48.61581 | 2.34392 | 35724 ft | 504 kts | 40° |
| 2026-05-07 13:30 | 48.66895 | 2.41311 | 35771 ft | 503 kts | 39° |
| 2026-05-07 13:30 | 48.72329 | 2.48052 | 35739 ft | 503 kts | 37° |
| 2026-05-07 13:31 | 48.77857 | 2.54584 | 35721 ft | 504 kts | 36° |
| 2026-05-07 13:31 | 48.83446 | 2.60880 | 35738 ft | 503 kts | 34° |
| 2026-05-07 13:32 | 48.89164 | 2.67016 | 35763 ft | 502 kts | 33° |
| 2026-05-07 13:32 | 48.94972 | 2.72947 | 35725 ft | 502 kts | 32° |
| 2026-05-07 13:33 | 49.00879 | 2.78673 | 35719 ft | 502 kts | 30° |
| 2026-05-07 13:33 | 49.06858 | 2.84171 | 35751 ft | 501 kts | 29° |
| 2026-05-07 13:34 | 49.15937 | 2.91970 | 35748 ft | 501 kts | 27° |
| 2026-05-07 13:35 | 49.22056 | 2.96899 | 35735 ft | 501 kts | 25° |
| 2026-05-07 13:35 | 49.28298 | 3.01687 | 35758 ft | 500 kts | 24° |
| 2026-05-07 13:36 | 49.34587 | 3.06257 | 35761 ft | 500 kts | 23° |
| 2026-05-07 13:36 | 49.40946 | 3.10626 | 35759 ft | 500 kts | 21° |
| 2026-05-07 13:37 | 49.47350 | 3.14772 | 35757 ft | 499 kts | 20° |
| 2026-05-07 13:37 | 49.53762 | 3.18673 | 35765 ft | 499 kts | 19° |
| 2026-05-07 13:38 | 49.60269 | 3.22410 | 35754 ft | 499 kts | 18° |
| 2026-05-07 13:38 | 49.66812 | 3.25977 | 35752 ft | 498 kts | 17° |
| 2026-05-07 13:39 | 49.73390 | 3.29379 | 35770 ft | 498 kts | 16° |
| 2026-05-07 13:39 | 49.79979 | 3.32573 | 35745 ft | 498 kts | 15° |
| 2026-05-07 13:40 | 49.86630 | 3.35566 | 35737 ft | 498 kts | 13° |
| 2026-05-07 13:40 | 49.93330 | 3.38363 | 35768 ft | 497 kts | 13° |
| 2026-05-07 13:41 | 50.00032 | 3.40967 | 35755 ft | 497 kts | 12° |
| 2026-05-07 13:41 | 50.06780 | 3.43380 | 35728 ft | 497 kts | 10° |
| 2026-05-07 13:42 | 50.13504 | 3.45590 | 35742 ft | 496 kts | 9° |
| 2026-05-07 13:42 | 50.20280 | 3.47641 | 35753 ft | 496 kts | 8° |
| 2026-05-07 13:43 | 50.27093 | 3.49497 | 35699 ft | 497 kts | 7° |
| 2026-05-07 13:43 | 50.33933 | 3.51148 | 35711 ft | 496 kts | 6° |
| 2026-05-07 13:44 | 50.40771 | 3.52644 | 35763 ft | 495 kts | 6° |
| 2026-05-07 13:44 | 50.47611 | 3.53960 | 35718 ft | 496 kts | 5° |
| 2026-05-07 13:45 | 50.54472 | 3.55084 | 35698 ft | 496 kts | 4° |
| 2026-05-07 13:45 | 50.61346 | 3.56023 | 35741 ft | 494 kts | 2° |
| 2026-05-07 13:46 | 50.68157 | 3.56744 | 35734 ft | 494 kts | 1° |
| 2026-05-07 13:46 | 50.75043 | 3.57309 | 35699 ft | 495 kts | 1° |
| 2026-05-07 13:47 | 50.81925 | 3.57732 | 35710 ft | 494 kts | 360° |
| 2026-05-07 13:47 | 50.88787 | 3.57962 | 35760 ft | 493 kts | 359° |
| 2026-05-07 13:48 | 50.94493 | 3.57971 | 35733 ft | 493 kts | 358° |
| 2026-05-07 13:48 | 51.01372 | 3.57767 | 35688 ft | 493 kts | 356° |
| 2026-05-07 13:49 | 51.08235 | 3.57332 | 35711 ft | 492 kts | 355° |
| 2026-05-07 13:49 | 51.15073 | 3.56684 | 35721 ft | 492 kts | 354° |
| 2026-05-07 13:50 | 51.21904 | 3.55831 | 35700 ft | 492 kts | 353° |
| 2026-05-07 13:50 | 51.28682 | 3.54774 | 35689 ft | 492 kts | 352° |
| 2026-05-07 13:51 | 51.35476 | 3.53494 | 35717 ft | 491 kts | 351° |
| 2026-05-07 13:51 | 51.42244 | 3.51956 | 35716 ft | 490 kts | 349° |
| 2026-05-07 13:52 | 51.48981 | 3.50146 | 35693 ft | 491 kts | 348° |
| 2026-05-07 13:52 | 51.55647 | 3.48094 | 35689 ft | 490 kts | 347° |
| 2026-05-07 13:53 | 51.62317 | 3.45782 | 35700 ft | 490 kts | 345° |
| 2026-05-07 13:53 | 51.68944 | 3.43228 | 35698 ft | 489 kts | 344° |
| 2026-05-07 13:54 | 51.75525 | 3.40433 | 35684 ft | 489 kts | 343° |
| 2026-05-07 13:54 | 51.82064 | 3.37377 | 35685 ft | 489 kts | 341° |
| 2026-05-07 13:55 | 51.88559 | 3.34022 | 35683 ft | 489 kts | 340° |
| 2026-05-07 13:55 | 51.94990 | 3.30385 | 35683 ft | 488 kts | 339° |
| 2026-05-07 13:56 | 52.01342 | 3.26475 | 35680 ft | 488 kts | 337° |
| 2026-05-07 13:56 | 52.07627 | 3.22251 | 35622 ft | 489 kts | 335° |
| 2026-05-07 13:57 | 52.13793 | 3.17731 | 35621 ft | 489 kts | 334° |
| 2026-05-07 13:57 | 52.19913 | 3.12880 | 35670 ft | 487 kts | 332° |
| 2026-05-07 13:58 | 52.25916 | 3.07747 | 35644 ft | 488 kts | 330° |
| 2026-05-07 13:58 | 52.31812 | 3.02178 | 35520 ft | 490 kts | 328° |
| 2026-05-07 13:59 | 52.37553 | 2.96096 | 35529 ft | 490 kts | 325° |
| 2026-05-07 13:59 | 52.43053 | 2.89649 | 35607 ft | 489 kts | 323° |
| 2026-05-07 14:00 | 52.48415 | 2.82775 | 35516 ft | 491 kts | 320° |
| 2026-05-07 14:00 | 52.53616 | 2.75426 | 35450 ft | 493 kts | 317° |
| 2026-05-07 14:01 | 52.58544 | 2.67632 | 35580 ft | 490 kts | 314° |
| 2026-05-07 14:01 | 52.63173 | 2.59494 | 35636 ft | 489 kts | 311° |
| 2026-05-07 14:02 | 52.67582 | 2.50913 | 35533 ft | 492 kts | 309° |
| 2026-05-07 14:02 | 52.71760 | 2.41925 | 35497 ft | 493 kts | 306° |
| 2026-05-07 14:03 | 52.75660 | 2.32632 | 35569 ft | 492 kts | 303° |
| 2026-05-07 14:03 | 52.79265 | 2.22992 | 35528 ft | 493 kts | 300° |
| 2026-05-07 14:04 | 52.82550 | 2.13078 | 35479 ft | 495 kts | 297° |
| 2026-05-07 14:04 | 52.85542 | 2.02830 | 35532 ft | 494 kts | 294° |
| 2026-05-07 14:05 | 52.88220 | 1.92379 | 35597 ft | 493 kts | 291° |
| 2026-05-07 14:05 | 52.90623 | 1.81697 | 35526 ft | 495 kts | 289° |
| 2026-05-07 14:06 | 52.92752 | 1.70817 | 35521 ft | 496 kts | 286° |
| 2026-05-07 14:06 | 52.94591 | 1.59816 | 35596 ft | 494 kts | 284° |
| 2026-05-07 14:07 | 52.96136 | 1.48789 | 35624 ft | 494 kts | 281° |
| 2026-05-07 14:07 | 52.97427 | 1.37551 | 35493 ft | 497 kts | 279° |
| 2026-05-07 14:08 | 52.98445 | 1.26193 | 35493 ft | 497 kts | 276° |
| 2026-05-07 14:08 | 52.99180 | 1.14806 | 35593 ft | 495 kts | 274° |
| 2026-05-07 14:09 | 52.99632 | 1.03414 | 35626 ft | 494 kts | 271° |
| 2026-05-07 14:09 | 52.99806 | 0.92056 | 35567 ft | 496 kts | 269° |
| 2026-05-07 14:10 | 52.99717 | 0.80613 | 35599 ft | 494 kts | 267° |
| 2026-05-07 14:10 | 52.99382 | 0.69229 | 35668 ft | 493 kts | 265° |
| 2026-05-07 14:11 | 52.98818 | 0.57885 | 35636 ft | 493 kts | 263° |
| 2026-05-07 14:11 | 52.98033 | 0.46557 | 35603 ft | 494 kts | 261° |
| 2026-05-07 14:12 | 52.97056 | 0.35271 | 35655 ft | 493 kts | 259° |
| 2026-05-07 14:12 | 52.95906 | 0.24082 | 35675 ft | 492 kts | 258° |
| 2026-05-07 14:13 | 52.94591 | 0.13001 | 35631 ft | 493 kts | 257° |
| 2026-05-07 14:13 | 52.93106 | 0.01911 | 35627 ft | 493 kts | 255° |
| 2026-05-07 14:14 | 52.91471 | -0.09111 | 35709 ft | 491 kts | 254° |
| 2026-05-07 14:14 | 52.89706 | -0.20043 | 35720 ft | 491 kts | 253° |
| 2026-05-07 14:15 | 52.87804 | -0.30925 | 35683 ft | 492 kts | 251° |
| 2026-05-07 14:15 | 52.85781 | -0.41672 | 35684 ft | 492 kts | 250° |
| 2026-05-07 14:16 | 52.83646 | -0.52411 | 35716 ft | 490 kts | 250° |
| 2026-05-07 14:16 | 52.81435 | -0.63087 | 35727 ft | 490 kts | 249° |
| 2026-05-07 14:17 | 52.79157 | -0.73726 | 35698 ft | 491 kts | 249° |
| 2026-05-07 14:17 | 52.76800 | -0.84339 | 35693 ft | 491 kts | 248° |
| 2026-05-07 14:18 | 52.74380 | -0.94781 | 35749 ft | 489 kts | 247° |
| 2026-05-07 14:18 | 52.71848 | -1.05156 | 35813 ft | 487 kts | 246° |
| 2026-05-07 14:19 | 52.69207 | -1.15473 | 35755 ft | 487 kts | 245° |
| 2026-05-07 14:19 | 52.66462 | -1.25689 | 35679 ft | 488 kts | 244° |
| 2026-05-07 14:20 | 52.63618 | -1.35763 | 35703 ft | 487 kts | 243° |
| 2026-05-07 14:20 | 52.60656 | -1.45783 | 35747 ft | 486 kts | 242° |
| 2026-05-07 14:21 | 52.57612 | -1.55689 | 35741 ft | 485 kts | 241° |
| 2026-05-07 14:21 | 52.54482 | -1.65522 | 35756 ft | 485 kts | 240° |
| 2026-05-07 14:22 | 52.51269 | -1.75258 | 35756 ft | 484 kts | 239° |
| 2026-05-07 14:22 | 52.47948 | -1.84888 | 35788 ft | 482 kts | 238° |
| 2026-05-07 14:23 | 52.44539 | -1.94264 | 35816 ft | 481 kts | 237° |
| 2026-05-07 14:23 | 52.40998 | -2.03576 | 35753 ft | 482 kts | 236° |
| 2026-05-07 14:24 | 52.37343 | -2.12785 | 35758 ft | 481 kts | 235° |
| 2026-05-07 14:24 | 52.33571 | -2.21827 | 35771 ft | 480 kts | 233° |
| 2026-05-07 14:25 | 52.29688 | -2.30699 | 35748 ft | 480 kts | 232° |
| 2026-05-07 14:25 | 52.25711 | -2.39385 | 35701 ft | 480 kts | 231° |
| 2026-05-07 14:26 | 52.21568 | -2.47877 | 35804 ft | 477 kts | 229° |
| 2026-05-07 14:26 | 52.17275 | -2.56075 | 35861 ft | 474 kts | 228° |
| 2026-05-07 14:27 | 52.12857 | -2.64068 | 35778 ft | 476 kts | 226° |
| 2026-05-07 14:27 | 52.08299 | -2.71923 | 35705 ft | 477 kts | 225° |
| 2026-05-07 14:28 | 52.03638 | -2.79564 | 35763 ft | 474 kts | 224° |
| 2026-05-07 14:28 | 51.98889 | -2.86992 | 35818 ft | 473 kts | 223° |
| 2026-05-07 14:29 | 51.94039 | -2.94222 | 35783 ft | 473 kts | 221° |
| 2026-05-07 14:29 | 51.89112 | -3.01182 | 35829 ft | 472 kts | 220° |
| 2026-05-07 14:30 | 51.84054 | -3.07931 | 35847 ft | 471 kts | 218° |
| 2026-05-07 14:30 | 51.78869 | -3.14428 | 35786 ft | 471 kts | 217° |
| 2026-05-07 14:31 | 51.73550 | -3.20635 | 35752 ft | 472 kts | 215° |
| 2026-05-07 14:31 | 51.68138 | -3.26496 | 35760 ft | 471 kts | 213° |
| 2026-05-07 14:32 | 51.62560 | -3.32070 | 35758 ft | 471 kts | 211° |
| 2026-05-07 14:32 | 51.56875 | -3.37278 | 35720 ft | 471 kts | 209° |
| 2026-05-07 14:33 | 51.51060 | -3.42131 | 35743 ft | 470 kts | 207° |
| 2026-05-07 14:33 | 51.45161 | -3.46613 | 35793 ft | 469 kts | 205° |
| 2026-05-07 14:34 | 51.39126 | -3.50725 | 35734 ft | 471 kts | 202° |
| 2026-05-07 14:34 | 51.32987 | -3.54418 | 35698 ft | 471 kts | 200° |
| 2026-05-07 14:35 | 51.26801 | -3.57685 | 35727 ft | 470 kts | 198° |
| 2026-05-07 14:35 | 51.20517 | -3.60573 | 35737 ft | 470 kts | 196° |
| 2026-05-07 14:36 | 51.14156 | -3.63080 | 35701 ft | 471 kts | 194° |
| 2026-05-07 14:36 | 51.08815 | -3.64855 | 35683 ft | 472 kts | 192° |
| 2026-05-07 14:37 | 51.02334 | -3.66608 | 35719 ft | 471 kts | 189° |
| 2026-05-07 14:37 | 50.92553 | -3.68489 | 35718 ft | 472 kts | 186° |
| 2026-05-07 14:38 | 50.85980 | -3.69163 | 35694 ft | 473 kts | 184° |
| 2026-05-07 14:38 | 50.79389 | -3.69354 | 35708 ft | 473 kts | 181° |
| 2026-05-07 14:39 | 50.72854 | -3.69101 | 35748 ft | 473 kts | 179° |
| 2026-05-07 14:39 | 50.66274 | -3.68435 | 35728 ft | 474 kts | 177° |
| 2026-05-07 14:40 | 50.59701 | -3.67373 | 35677 ft | 475 kts | 175° |
| 2026-05-07 14:40 | 50.53163 | -3.65930 | 35725 ft | 474 kts | 173° |
| 2026-05-07 14:41 | 50.46672 | -3.64109 | 35770 ft | 473 kts | 171° |
| 2026-05-07 14:41 | 50.40256 | -3.61906 | 35700 ft | 476 kts | 168° |
| 2026-05-07 14:42 | 50.33833 | -3.59288 | 35685 ft | 476 kts | 166° |
| 2026-05-07 14:42 | 50.27498 | -3.56291 | 35759 ft | 475 kts | 164° |
| 2026-05-07 14:43 | 50.21236 | -3.52934 | 35728 ft | 476 kts | 162° |
| 2026-05-07 14:43 | 50.15033 | -3.49228 | 35665 ft | 478 kts | 160° |
| 2026-05-07 14:44 | 50.08898 | -3.45196 | 35689 ft | 477 kts | 158° |
| 2026-05-07 14:44 | 50.02867 | -3.40883 | 35722 ft | 477 kts | 156° |
| 2026-05-07 14:45 | 49.96960 | -3.36303 | 35688 ft | 478 kts | 154° |
| 2026-05-07 14:45 | 49.91092 | -3.31360 | 35651 ft | 479 kts | 153° |
| 2026-05-07 14:46 | 49.85340 | -3.26114 | 35700 ft | 478 kts | 150° |
| 2026-05-07 14:46 | 49.79716 | -3.20598 | 35692 ft | 479 kts | 149° |
| 2026-05-07 14:47 | 49.74185 | -3.14799 | 35626 ft | 481 kts | 147° |
| 2026-05-07 14:47 | 49.68762 | -3.08729 | 35609 ft | 481 kts | 145° |
| 2026-05-07 14:48 | 49.63469 | -3.02403 | 35654 ft | 481 kts | 143° |
| 2026-05-07 14:48 | 49.58310 | -2.95826 | 35648 ft | 481 kts | 142° |
| 2026-05-07 14:49 | 49.53308 | -2.89037 | 35601 ft | 483 kts | 140° |
| 2026-05-07 14:49 | 49.48404 | -2.81956 | 35600 ft | 483 kts | 138° |
| 2026-05-07 14:50 | 49.43653 | -2.74647 | 35672 ft | 482 kts | 136° |
| 2026-05-07 14:50 | 49.39051 | -2.67114 | 35642 ft | 483 kts | 135° |
| 2026-05-07 14:51 | 49.34609 | -2.59399 | 35569 ft | 486 kts | 133° |
| 2026-05-07 14:51 | 49.30279 | -2.51431 | 35576 ft | 487 kts | 131° |
| 2026-05-07 14:52 | 49.26078 | -2.43298 | 35640 ft | 485 kts | 130° |
| 2026-05-07 14:52 | 49.22020 | -2.35017 | 35631 ft | 486 kts | 128° |
| 2026-05-07 14:53 | 49.18095 | -2.26556 | 35578 ft | 488 kts | 127° |
| 2026-05-07 14:53 | 49.14336 | -2.17987 | 35576 ft | 489 kts | 125° |
| 2026-05-07 14:54 | 49.10670 | -2.09233 | 35598 ft | 490 kts | 124° |
| 2026-05-07 14:54 | 49.07141 | -2.00333 | 35610 ft | 490 kts | 122° |
| 2026-05-07 14:55 | 49.03774 | -1.91298 | 35608 ft | 490 kts | 121° |
| 2026-05-07 14:55 | 49.00569 | -1.82130 | 35603 ft | 490 kts | 119° |
| 2026-05-07 14:56 | 48.97519 | -1.72815 | 35575 ft | 491 kts | 118° |
| 2026-05-07 14:56 | 48.94589 | -1.63388 | 35536 ft | 493 kts | 117° |
| 2026-05-07 14:57 | 48.91800 | -1.53938 | 35541 ft | 493 kts | 115° |
| 2026-05-07 14:57 | 48.89126 | -1.44349 | 35583 ft | 492 kts | 114° |
| 2026-05-07 14:58 | 48.86583 | -1.34666 | 35567 ft | 494 kts | 113° |
| 2026-05-07 14:58 | 48.84184 | -1.24869 | 35528 ft | 496 kts | 111° |
| 2026-05-07 14:59 | 48.81930 | -1.14974 | 35491 ft | 497 kts | 110° |
| 2026-05-07 14:59 | 48.79824 | -1.04985 | 35536 ft | 496 kts | 109° |
| 2026-05-07 15:00 | 48.77876 | -0.94931 | 35560 ft | 496 kts | 108° |
| 2026-05-07 15:00 | 48.76097 | -0.84885 | 35530 ft | 498 kts | 106° |
| 2026-05-07 15:01 | 48.74460 | -0.74664 | 35513 ft | 499 kts | 104° |
| 2026-05-07 15:01 | 48.72976 | -0.64381 | 35543 ft | 498 kts | 103° |
| 2026-05-07 15:02 | 48.71644 | -0.54058 | 35556 ft | 499 kts | 102° |
| 2026-05-07 15:02 | 48.70482 | -0.43757 | 35531 ft | 500 kts | 101° |
| 2026-05-07 15:03 | 48.69468 | -0.33353 | 35543 ft | 500 kts | 99° |
| 2026-05-07 15:03 | 48.68599 | -0.22907 | 35575 ft | 500 kts | 98° |
| 2026-05-07 15:04 | 48.67872 | -0.12442 | 35559 ft | 500 kts | 97° |